sensor_id;sensor_type;location;lat;lon;timestamp;P1;durP1;ratioP1;P2;durP2;ratioP2
7426;SDS011;3755;59.316;18.092;2023-11-21T00:01:43;8.83;;;4.40;;
7426;SDS011;3755;59.316;18.092;2023-11-21T00:04:10;7.53;;;3.93;;
7426;SDS011;3755;59.316;18.092;2023-11-21T00:06:37;5.53;;;3.60;;
7426;SDS011;3755;59.316;18.092;2023-11-21T00:09:06;4.63;;;3.10;;
7426;SDS011;3755;59.316;18.092;2023-11-21T00:11:33;6.27;;;3.07;;
7426;SDS011;3755;59.316;18.092;2023-11-21T00:14:02;4.97;;;3.33;;
7426;SDS011;3755;59.316;18.092;2023-11-21T00:16:29;7.73;;;3.90;;
7426;SDS011;3755;59.316;18.092;2023-11-21T00:18:56;5.43;;;3.53;;
7426;SDS011;3755;59.316;18.092;2023-11-21T00:21:23;5.80;;;3.37;;
7426;SDS011;3755;59.316;18.092;2023-11-21T00:23:50;5.47;;;3.40;;
7426;SDS011;3755;59.316;18.092;2023-11-21T00:26:17;7.20;;;3.20;;
7426;SDS011;3755;59.316;18.092;2023-11-21T00:28:44;3.87;;;2.70;;
7426;SDS011;3755;59.316;18.092;2023-11-21T00:31:13;5.00;;;3.17;;
7426;SDS011;3755;59.316;18.092;2023-11-21T00:33:40;4.33;;;2.90;;
7426;SDS011;3755;59.316;18.092;2023-11-21T00:36:07;5.67;;;2.77;;
7426;SDS011;3755;59.316;18.092;2023-11-21T00:38:35;4.03;;;2.57;;
7426;SDS011;3755;59.316;18.092;2023-11-21T00:41:05;6.83;;;3.70;;
7426;SDS011;3755;59.316;18.092;2023-11-21T00:43:33;6.47;;;3.73;;
7426;SDS011;3755;59.316;18.092;2023-11-21T00:46:03;3.93;;;2.83;;
7426;SDS011;3755;59.316;18.092;2023-11-21T00:48:33;4.20;;;2.70;;
7426;SDS011;3755;59.316;18.092;2023-11-21T00:51:00;5.27;;;2.70;;
7426;SDS011;3755;59.316;18.092;2023-11-21T00:53:27;10.03;;;4.10;;
7426;SDS011;3755;59.316;18.092;2023-11-21T00:55:54;5.67;;;3.50;;
7426;SDS011;3755;59.316;18.092;2023-11-21T00:58:23;6.93;;;3.50;;
7426;SDS011;3755;59.316;18.092;2023-11-21T01:00:50;8.30;;;3.63;;
7426;SDS011;3755;59.316;18.092;2023-11-21T01:03:17;5.53;;;3.00;;
7426;SDS011;3755;59.316;18.092;2023-11-21T01:05:45;5.43;;;3.67;;
7426;SDS011;3755;59.316;18.092;2023-11-21T01:08:14;8.53;;;4.00;;
7426;SDS011;3755;59.316;18.092;2023-11-21T01:10:42;3.63;;;2.90;;
7426;SDS011;3755;59.316;18.092;2023-11-21T01:13:09;4.73;;;3.07;;
7426;SDS011;3755;59.316;18.092;2023-11-21T01:15:36;5.43;;;2.90;;
7426;SDS011;3755;59.316;18.092;2023-11-21T01:18:03;5.83;;;3.13;;
7426;SDS011;3755;59.316;18.092;2023-11-21T01:20:30;4.10;;;2.90;;
7426;SDS011;3755;59.316;18.092;2023-11-21T01:22:59;4.43;;;2.50;;
7426;SDS011;3755;59.316;18.092;2023-11-21T01:25:26;5.93;;;3.30;;
7426;SDS011;3755;59.316;18.092;2023-11-21T01:27:53;6.20;;;3.57;;
7426;SDS011;3755;59.316;18.092;2023-11-21T01:30:20;8.80;;;3.70;;
7426;SDS011;3755;59.316;18.092;2023-11-21T01:32:47;6.03;;;3.57;;
7426;SDS011;3755;59.316;18.092;2023-11-21T01:35:14;6.53;;;3.50;;
7426;SDS011;3755;59.316;18.092;2023-11-21T01:37:41;5.13;;;2.87;;
7426;SDS011;3755;59.316;18.092;2023-11-21T01:40:10;5.20;;;3.10;;
7426;SDS011;3755;59.316;18.092;2023-11-21T01:42:39;4.67;;;2.30;;
7426;SDS011;3755;59.316;18.092;2023-11-21T01:45:06;3.83;;;2.67;;
7426;SDS011;3755;59.316;18.092;2023-11-21T01:47:34;3.80;;;2.63;;
7426;SDS011;3755;59.316;18.092;2023-11-21T01:50:02;5.50;;;3.00;;
7426;SDS011;3755;59.316;18.092;2023-11-21T01:52:32;3.83;;;2.77;;
7426;SDS011;3755;59.316;18.092;2023-11-21T01:55:01;4.00;;;2.70;;
7426;SDS011;3755;59.316;18.092;2023-11-21T01:57:31;4.10;;;2.87;;
7426;SDS011;3755;59.316;18.092;2023-11-21T01:59:58;4.40;;;2.90;;
7426;SDS011;3755;59.316;18.092;2023-11-21T02:02:40;3.47;;;2.57;;
7426;SDS011;3755;59.316;18.092;2023-11-21T02:05:08;3.90;;;2.90;;
7426;SDS011;3755;59.316;18.092;2023-11-21T02:07:37;4.03;;;2.83;;
7426;SDS011;3755;59.316;18.092;2023-11-21T02:10:05;3.83;;;2.87;;
7426;SDS011;3755;59.316;18.092;2023-11-21T02:12:35;5.20;;;2.83;;
7426;SDS011;3755;59.316;18.092;2023-11-21T02:15:04;4.30;;;2.87;;
7426;SDS011;3755;59.316;18.092;2023-11-21T02:17:39;4.87;;;3.00;;
7426;SDS011;3755;59.316;18.092;2023-11-21T02:20:07;4.43;;;3.20;;
7426;SDS011;3755;59.316;18.092;2023-11-21T02:22:40;5.33;;;3.10;;
7426;SDS011;3755;59.316;18.092;2023-11-21T02:25:09;3.23;;;2.57;;
7426;SDS011;3755;59.316;18.092;2023-11-21T02:27:37;3.60;;;2.90;;
7426;SDS011;3755;59.316;18.092;2023-11-21T02:30:04;5.03;;;3.57;;
7426;SDS011;3755;59.316;18.092;2023-11-21T02:32:37;3.57;;;2.73;;
7426;SDS011;3755;59.316;18.092;2023-11-21T02:35:05;3.77;;;2.77;;
7426;SDS011;3755;59.316;18.092;2023-11-21T02:37:33;4.10;;;2.60;;
7426;SDS011;3755;59.316;18.092;2023-11-21T02:40:00;5.17;;;2.83;;
7426;SDS011;3755;59.316;18.092;2023-11-21T02:42:32;4.23;;;3.00;;
7426;SDS011;3755;59.316;18.092;2023-11-21T02:44:59;4.87;;;2.47;;
7426;SDS011;3755;59.316;18.092;2023-11-21T02:47:28;3.73;;;2.93;;
7426;SDS011;3755;59.316;18.092;2023-11-21T02:49:55;3.77;;;2.80;;
7426;SDS011;3755;59.316;18.092;2023-11-21T02:52:22;3.97;;;2.90;;
7426;SDS011;3755;59.316;18.092;2023-11-21T02:54:50;3.57;;;2.80;;
7426;SDS011;3755;59.316;18.092;2023-11-21T02:57:18;5.00;;;2.70;;
7426;SDS011;3755;59.316;18.092;2023-11-21T02:59:47;3.27;;;2.57;;
7426;SDS011;3755;59.316;18.092;2023-11-21T03:02:14;3.67;;;2.87;;
7426;SDS011;3755;59.316;18.092;2023-11-21T03:04:41;3.27;;;2.73;;
7426;SDS011;3755;59.316;18.092;2023-11-21T03:07:08;4.03;;;3.03;;
7426;SDS011;3755;59.316;18.092;2023-11-21T03:09:36;5.00;;;3.10;;
7426;SDS011;3755;59.316;18.092;2023-11-21T03:12:03;3.87;;;2.37;;
7426;SDS011;3755;59.316;18.092;2023-11-21T03:14:30;4.63;;;2.70;;
7426;SDS011;3755;59.316;18.092;2023-11-21T03:17:00;3.50;;;2.57;;
7426;SDS011;3755;59.316;18.092;2023-11-21T03:19:27;3.43;;;2.70;;
7426;SDS011;3755;59.316;18.092;2023-11-21T03:21:53;6.30;;;2.87;;
7426;SDS011;3755;59.316;18.092;2023-11-21T03:24:20;3.43;;;2.70;;
7426;SDS011;3755;59.316;18.092;2023-11-21T03:26:48;2.30;;;2.10;;
7426;SDS011;3755;59.316;18.092;2023-11-21T03:29:16;3.30;;;2.57;;
7426;SDS011;3755;59.316;18.092;2023-11-21T03:31:42;2.73;;;2.10;;
7426;SDS011;3755;59.316;18.092;2023-11-21T03:34:14;4.13;;;2.43;;
7426;SDS011;3755;59.316;18.092;2023-11-21T03:36:43;4.20;;;2.40;;
7426;SDS011;3755;59.316;18.092;2023-11-21T03:39:11;4.63;;;2.80;;
7426;SDS011;3755;59.316;18.092;2023-11-21T03:41:38;3.60;;;2.30;;
7426;SDS011;3755;59.316;18.092;2023-11-21T03:44:06;2.33;;;2.10;;
7426;SDS011;3755;59.316;18.092;2023-11-21T03:46:33;3.47;;;2.80;;
7426;SDS011;3755;59.316;18.092;2023-11-21T03:49:00;3.83;;;2.77;;
7426;SDS011;3755;59.316;18.092;2023-11-21T03:51:28;3.73;;;2.60;;
7426;SDS011;3755;59.316;18.092;2023-11-21T03:53:55;4.23;;;3.07;;
7426;SDS011;3755;59.316;18.092;2023-11-21T03:56:22;3.60;;;2.57;;
7426;SDS011;3755;59.316;18.092;2023-11-21T03:58:49;4.20;;;3.07;;
7426;SDS011;3755;59.316;18.092;2023-11-21T04:01:19;4.57;;;3.30;;
7426;SDS011;3755;59.316;18.092;2023-11-21T04:03:47;4.10;;;3.10;;
7426;SDS011;3755;59.316;18.092;2023-11-21T04:06:15;4.53;;;3.00;;
7426;SDS011;3755;59.316;18.092;2023-11-21T04:08:44;4.23;;;3.00;;
7426;SDS011;3755;59.316;18.092;2023-11-21T04:11:12;4.77;;;3.30;;
7426;SDS011;3755;59.316;18.092;2023-11-21T04:13:39;4.97;;;3.37;;
7426;SDS011;3755;59.316;18.092;2023-11-21T04:16:07;4.00;;;3.10;;
7426;SDS011;3755;59.316;18.092;2023-11-21T04:18:35;5.47;;;3.33;;
7426;SDS011;3755;59.316;18.092;2023-11-21T04:21:02;5.23;;;2.83;;
7426;SDS011;3755;59.316;18.092;2023-11-21T04:23:30;3.63;;;3.03;;
7426;SDS011;3755;59.316;18.092;2023-11-21T04:25:59;4.00;;;3.03;;
7426;SDS011;3755;59.316;18.092;2023-11-21T04:28:27;4.07;;;3.10;;
7426;SDS011;3755;59.316;18.092;2023-11-21T04:30:54;4.53;;;2.90;;
7426;SDS011;3755;59.316;18.092;2023-11-21T04:33:21;4.00;;;2.73;;
7426;SDS011;3755;59.316;18.092;2023-11-21T04:35:48;4.37;;;2.97;;
7426;SDS011;3755;59.316;18.092;2023-11-21T04:38:15;3.93;;;3.07;;
7426;SDS011;3755;59.316;18.092;2023-11-21T04:40:42;3.80;;;2.77;;
7426;SDS011;3755;59.316;18.092;2023-11-21T04:43:11;3.93;;;2.90;;
7426;SDS011;3755;59.316;18.092;2023-11-21T04:45:38;3.80;;;2.60;;
7426;SDS011;3755;59.316;18.092;2023-11-21T04:48:06;3.57;;;3.10;;
7426;SDS011;3755;59.316;18.092;2023-11-21T04:50:33;5.43;;;3.20;;
7426;SDS011;3755;59.316;18.092;2023-11-21T04:53:00;3.67;;;2.63;;
7426;SDS011;3755;59.316;18.092;2023-11-21T04:55:27;3.97;;;2.83;;
7426;SDS011;3755;59.316;18.092;2023-11-21T04:57:54;4.37;;;2.63;;
7426;SDS011;3755;59.316;18.092;2023-11-21T05:00:23;2.63;;;2.13;;
7426;SDS011;3755;59.316;18.092;2023-11-21T05:02:51;6.10;;;2.93;;
7426;SDS011;3755;59.316;18.092;2023-11-21T05:05:18;3.47;;;2.63;;
7426;SDS011;3755;59.316;18.092;2023-11-21T05:07:45;2.70;;;2.20;;
7426;SDS011;3755;59.316;18.092;2023-11-21T05:10:14;2.63;;;2.10;;
7426;SDS011;3755;59.316;18.092;2023-11-21T05:12:41;4.13;;;2.63;;
7426;SDS011;3755;59.316;18.092;2023-11-21T05:15:08;3.13;;;2.57;;
7426;SDS011;3755;59.316;18.092;2023-11-21T05:17:38;3.77;;;2.40;;
7426;SDS011;3755;59.316;18.092;2023-11-21T05:20:07;3.37;;;2.23;;
7426;SDS011;3755;59.316;18.092;2023-11-21T05:22:36;3.40;;;1.93;;
7426;SDS011;3755;59.316;18.092;2023-11-21T05:25:04;5.00;;;2.27;;
7426;SDS011;3755;59.316;18.092;2023-11-21T05:27:32;3.13;;;2.37;;
7426;SDS011;3755;59.316;18.092;2023-11-21T05:30:00;4.00;;;2.50;;
7426;SDS011;3755;59.316;18.092;2023-11-21T05:32:30;2.90;;;2.37;;
7426;SDS011;3755;59.316;18.092;2023-11-21T05:34:58;2.23;;;2.03;;
7426;SDS011;3755;59.316;18.092;2023-11-21T05:37:26;4.17;;;2.40;;
7426;SDS011;3755;59.316;18.092;2023-11-21T05:39:53;2.70;;;2.10;;
7426;SDS011;3755;59.316;18.092;2023-11-21T05:42:21;2.23;;;1.90;;
7426;SDS011;3755;59.316;18.092;2023-11-21T05:44:48;2.20;;;2.00;;
7426;SDS011;3755;59.316;18.092;2023-11-21T05:47:15;3.03;;;2.17;;
7426;SDS011;3755;59.316;18.092;2023-11-21T05:49:43;2.80;;;1.97;;
7426;SDS011;3755;59.316;18.092;2023-11-21T05:52:12;2.93;;;2.00;;
7426;SDS011;3755;59.316;18.092;2023-11-21T05:54:41;2.90;;;2.00;;
7426;SDS011;3755;59.316;18.092;2023-11-21T05:57:08;2.43;;;1.60;;
7426;SDS011;3755;59.316;18.092;2023-11-21T05:59:35;4.23;;;2.20;;
7426;SDS011;3755;59.316;18.092;2023-11-21T06:02:02;2.13;;;1.87;;
7426;SDS011;3755;59.316;18.092;2023-11-21T06:04:30;3.63;;;2.03;;
7426;SDS011;3755;59.316;18.092;2023-11-21T06:06:57;3.50;;;2.10;;
7426;SDS011;3755;59.316;18.092;2023-11-21T06:09:27;2.40;;;1.73;;
7426;SDS011;3755;59.316;18.092;2023-11-21T06:11:54;2.50;;;2.00;;
7426;SDS011;3755;59.316;18.092;2023-11-21T06:14:21;2.57;;;2.17;;
7426;SDS011;3755;59.316;18.092;2023-11-21T06:16:48;3.80;;;2.10;;
7426;SDS011;3755;59.316;18.092;2023-11-21T06:19:16;3.13;;;2.20;;
7426;SDS011;3755;59.316;18.092;2023-11-21T06:21:45;2.60;;;2.40;;
7426;SDS011;3755;59.316;18.092;2023-11-21T06:24:13;3.37;;;1.90;;
7426;SDS011;3755;59.316;18.092;2023-11-21T06:26:42;2.57;;;2.23;;
7426;SDS011;3755;59.316;18.092;2023-11-21T06:29:10;2.37;;;1.70;;
7426;SDS011;3755;59.316;18.092;2023-11-21T06:31:37;2.50;;;2.17;;
7426;SDS011;3755;59.316;18.092;2023-11-21T06:34:06;3.90;;;2.53;;
7426;SDS011;3755;59.316;18.092;2023-11-21T06:36:34;3.67;;;2.20;;
7426;SDS011;3755;59.316;18.092;2023-11-21T06:39:02;2.43;;;2.10;;
7426;SDS011;3755;59.316;18.092;2023-11-21T06:41:31;3.97;;;2.20;;
7426;SDS011;3755;59.316;18.092;2023-11-21T06:44:06;3.17;;;2.63;;
7426;SDS011;3755;59.316;18.092;2023-11-21T06:46:33;3.07;;;2.53;;
7426;SDS011;3755;59.316;18.092;2023-11-21T06:49:02;3.50;;;2.67;;
7426;SDS011;3755;59.316;18.092;2023-11-21T06:51:32;4.23;;;2.80;;
7426;SDS011;3755;59.316;18.092;2023-11-21T06:54:13;3.80;;;2.57;;
7426;SDS011;3755;59.316;18.092;2023-11-21T06:56:46;4.23;;;2.80;;
7426;SDS011;3755;59.316;18.092;2023-11-21T06:59:37;3.43;;;3.00;;
7426;SDS011;3755;59.316;18.092;2023-11-21T07:02:19;3.90;;;2.57;;
7426;SDS011;3755;59.316;18.092;2023-11-21T07:04:48;4.53;;;2.40;;
7426;SDS011;3755;59.316;18.092;2023-11-21T07:07:29;5.03;;;2.87;;
7426;SDS011;3755;59.316;18.092;2023-11-21T07:09:57;4.67;;;2.90;;
7426;SDS011;3755;59.316;18.092;2023-11-21T07:12:28;3.80;;;2.50;;
7426;SDS011;3755;59.316;18.092;2023-11-21T07:14:57;3.57;;;2.97;;
7426;SDS011;3755;59.316;18.092;2023-11-21T07:17:29;4.57;;;3.40;;
7426;SDS011;3755;59.316;18.092;2023-11-21T07:19:58;3.30;;;2.47;;
7426;SDS011;3755;59.316;18.092;2023-11-21T07:22:26;4.63;;;2.87;;
7426;SDS011;3755;59.316;18.092;2023-11-21T07:24:55;4.77;;;3.20;;
7426;SDS011;3755;59.316;18.092;2023-11-21T07:27:26;5.70;;;2.80;;
7426;SDS011;3755;59.316;18.092;2023-11-21T07:29:53;2.83;;;2.43;;
7426;SDS011;3755;59.316;18.092;2023-11-21T07:35:47;4.20;;;2.40;;
7426;SDS011;3755;59.316;18.092;2023-11-21T07:38:28;5.27;;;2.60;;
7426;SDS011;3755;59.316;18.092;2023-11-21T07:41:10;5.90;;;3.60;;
7426;SDS011;3755;59.316;18.092;2023-11-21T07:43:51;4.47;;;2.50;;
7426;SDS011;3755;59.316;18.092;2023-11-21T07:46:34;3.70;;;2.20;;
7426;SDS011;3755;59.316;18.092;2023-11-21T07:49:39;2.63;;;2.37;;
7426;SDS011;3755;59.316;18.092;2023-11-21T07:52:23;5.23;;;2.53;;
7426;SDS011;3755;59.316;18.092;2023-11-21T07:55:01;2.63;;;2.30;;
7426;SDS011;3755;59.316;18.092;2023-11-21T07:57:31;5.13;;;2.70;;
7426;SDS011;3755;59.316;18.092;2023-11-21T08:00:18;3.30;;;2.27;;
7426;SDS011;3755;59.316;18.092;2023-11-21T08:03:01;5.37;;;2.77;;
7426;SDS011;3755;59.316;18.092;2023-11-21T08:05:28;3.57;;;2.47;;
7426;SDS011;3755;59.316;18.092;2023-11-21T08:07:57;3.40;;;2.60;;
7426;SDS011;3755;59.316;18.092;2023-11-21T08:10:26;5.97;;;3.03;;
7426;SDS011;3755;59.316;18.092;2023-11-21T08:13:12;3.50;;;2.80;;
7426;SDS011;3755;59.316;18.092;2023-11-21T08:16:28;3.23;;;2.47;;
7426;SDS011;3755;59.316;18.092;2023-11-21T08:19:09;2.43;;;2.20;;
7426;SDS011;3755;59.316;18.092;2023-11-21T08:21:51;4.17;;;2.50;;
7426;SDS011;3755;59.316;18.092;2023-11-21T08:24:29;3.27;;;2.27;;
7426;SDS011;3755;59.316;18.092;2023-11-21T08:26:56;2.43;;;1.87;;
7426;SDS011;3755;59.316;18.092;2023-11-21T08:29:38;2.77;;;2.17;;
7426;SDS011;3755;59.316;18.092;2023-11-21T08:32:16;3.80;;;2.30;;
7426;SDS011;3755;59.316;18.092;2023-11-21T08:34:57;4.13;;;2.27;;
7426;SDS011;3755;59.316;18.092;2023-11-21T08:37:26;2.73;;;2.40;;
7426;SDS011;3755;59.316;18.092;2023-11-21T08:40:00;4.47;;;2.40;;
7426;SDS011;3755;59.316;18.092;2023-11-21T08:42:42;4.37;;;2.03;;
7426;SDS011;3755;59.316;18.092;2023-11-21T08:45:11;3.67;;;2.00;;
7426;SDS011;3755;59.316;18.092;2023-11-21T08:47:38;5.07;;;3.83;;
7426;SDS011;3755;59.316;18.092;2023-11-21T08:50:06;2.50;;;2.30;;
7426;SDS011;3755;59.316;18.092;2023-11-21T08:52:34;4.67;;;2.53;;
7426;SDS011;3755;59.316;18.092;2023-11-21T08:55:04;4.10;;;2.40;;
7426;SDS011;3755;59.316;18.092;2023-11-21T08:57:33;3.97;;;2.37;;
7426;SDS011;3755;59.316;18.092;2023-11-21T09:00:00;3.60;;;2.83;;
7426;SDS011;3755;59.316;18.092;2023-11-21T09:02:30;3.27;;;1.80;;
7426;SDS011;3755;59.316;18.092;2023-11-21T09:04:59;3.20;;;2.63;;
7426;SDS011;3755;59.316;18.092;2023-11-21T09:07:29;3.60;;;2.60;;
7426;SDS011;3755;59.316;18.092;2023-11-21T09:10:13;2.50;;;1.80;;
7426;SDS011;3755;59.316;18.092;2023-11-21T09:13:14;3.13;;;2.60;;
7426;SDS011;3755;59.316;18.092;2023-11-21T09:15:59;4.13;;;2.17;;
7426;SDS011;3755;59.316;18.092;2023-11-21T09:18:41;4.20;;;2.20;;
7426;SDS011;3755;59.316;18.092;2023-11-21T09:21:13;2.93;;;2.00;;
7426;SDS011;3755;59.316;18.092;2023-11-21T09:23:42;2.73;;;2.10;;
7426;SDS011;3755;59.316;18.092;2023-11-21T09:26:12;5.00;;;2.20;;
7426;SDS011;3755;59.316;18.092;2023-11-21T09:28:41;3.50;;;2.10;;
7426;SDS011;3755;59.316;18.092;2023-11-21T09:31:11;4.47;;;2.10;;
7426;SDS011;3755;59.316;18.092;2023-11-21T09:33:41;2.90;;;2.10;;
7426;SDS011;3755;59.316;18.092;2023-11-21T09:36:11;3.63;;;2.00;;
7426;SDS011;3755;59.316;18.092;2023-11-21T09:38:40;2.20;;;1.80;;
7426;SDS011;3755;59.316;18.092;2023-11-21T09:41:17;3.73;;;1.73;;
7426;SDS011;3755;59.316;18.092;2023-11-21T09:44:06;4.67;;;2.00;;
7426;SDS011;3755;59.316;18.092;2023-11-21T09:46:38;4.43;;;2.10;;
7426;SDS011;3755;59.316;18.092;2023-11-21T09:49:08;2.63;;;2.17;;
7426;SDS011;3755;59.316;18.092;2023-11-21T09:51:38;3.47;;;2.37;;
7426;SDS011;3755;59.316;18.092;2023-11-21T09:54:08;4.30;;;2.73;;
7426;SDS011;3755;59.316;18.092;2023-11-21T09:56:38;3.97;;;2.40;;
7426;SDS011;3755;59.316;18.092;2023-11-21T09:59:06;3.03;;;2.27;;
7426;SDS011;3755;59.316;18.092;2023-11-21T10:01:36;3.77;;;2.27;;
7426;SDS011;3755;59.316;18.092;2023-11-21T10:04:06;2.63;;;1.97;;
7426;SDS011;3755;59.316;18.092;2023-11-21T10:06:37;2.93;;;2.03;;
7426;SDS011;3755;59.316;18.092;2023-11-21T10:09:26;3.43;;;2.33;;
7426;SDS011;3755;59.316;18.092;2023-11-21T10:11:58;2.83;;;2.13;;
7426;SDS011;3755;59.316;18.092;2023-11-21T10:14:40;3.07;;;2.13;;
7426;SDS011;3755;59.316;18.092;2023-11-21T10:17:09;3.83;;;2.30;;
7426;SDS011;3755;59.316;18.092;2023-11-21T10:19:39;2.70;;;2.07;;
7426;SDS011;3755;59.316;18.092;2023-11-21T10:22:08;2.33;;;2.00;;
7426;SDS011;3755;59.316;18.092;2023-11-21T10:24:35;2.77;;;2.00;;
7426;SDS011;3755;59.316;18.092;2023-11-21T10:27:06;2.37;;;1.83;;
7426;SDS011;3755;59.316;18.092;2023-11-21T10:29:47;3.30;;;1.93;;
7426;SDS011;3755;59.316;18.092;2023-11-21T10:32:17;3.90;;;2.07;;
7426;SDS011;3755;59.316;18.092;2023-11-21T10:34:55;3.63;;;2.40;;
7426;SDS011;3755;59.316;18.092;2023-11-21T10:37:22;4.90;;;2.47;;
7426;SDS011;3755;59.316;18.092;2023-11-21T10:39:55;3.47;;;2.20;;
7426;SDS011;3755;59.316;18.092;2023-11-21T10:42:25;5.20;;;2.33;;
7426;SDS011;3755;59.316;18.092;2023-11-21T10:44:53;5.30;;;2.73;;
7426;SDS011;3755;59.316;18.092;2023-11-21T10:47:21;4.23;;;2.83;;
7426;SDS011;3755;59.316;18.092;2023-11-21T10:49:49;4.87;;;3.03;;
7426;SDS011;3755;59.316;18.092;2023-11-21T10:52:19;2.97;;;2.27;;
7426;SDS011;3755;59.316;18.092;2023-11-21T10:54:47;3.23;;;2.50;;
7426;SDS011;3755;59.316;18.092;2023-11-21T10:57:16;3.10;;;2.47;;
7426;SDS011;3755;59.316;18.092;2023-11-21T10:59:47;3.50;;;2.43;;
7426;SDS011;3755;59.316;18.092;2023-11-21T11:02:18;4.33;;;2.87;;
7426;SDS011;3755;59.316;18.092;2023-11-21T11:04:50;2.97;;;2.30;;
7426;SDS011;3755;59.316;18.092;2023-11-21T11:07:20;4.90;;;2.37;;
7426;SDS011;3755;59.316;18.092;2023-11-21T11:09:52;2.40;;;2.13;;
7426;SDS011;3755;59.316;18.092;2023-11-21T11:12:20;7.00;;;2.80;;
7426;SDS011;3755;59.316;18.092;2023-11-21T11:14:54;3.10;;;2.10;;
7426;SDS011;3755;59.316;18.092;2023-11-21T11:17:36;3.43;;;2.50;;
7426;SDS011;3755;59.316;18.092;2023-11-21T11:20:06;6.53;;;2.53;;
7426;SDS011;3755;59.316;18.092;2023-11-21T11:22:36;5.53;;;2.67;;
7426;SDS011;3755;59.316;18.092;2023-11-21T11:25:17;3.23;;;2.40;;
7426;SDS011;3755;59.316;18.092;2023-11-21T11:27:58;3.17;;;2.37;;
7426;SDS011;3755;59.316;18.092;2023-11-21T11:30:35;2.67;;;2.17;;
7426;SDS011;3755;59.316;18.092;2023-11-21T11:33:20;2.57;;;2.10;;
7426;SDS011;3755;59.316;18.092;2023-11-21T11:35:57;4.90;;;2.53;;
7426;SDS011;3755;59.316;18.092;2023-11-21T11:38:30;4.07;;;2.43;;
7426;SDS011;3755;59.316;18.092;2023-11-21T11:41:01;4.33;;;2.80;;
7426;SDS011;3755;59.316;18.092;2023-11-21T11:43:30;2.67;;;1.87;;
7426;SDS011;3755;59.316;18.092;2023-11-21T11:46:02;3.43;;;2.43;;
7426;SDS011;3755;59.316;18.092;2023-11-21T11:48:29;3.00;;;1.90;;
7426;SDS011;3755;59.316;18.092;2023-11-21T11:51:02;4.47;;;2.57;;
7426;SDS011;3755;59.316;18.092;2023-11-21T11:53:33;2.30;;;1.80;;
7426;SDS011;3755;59.316;18.092;2023-11-21T11:56:19;3.77;;;2.37;;
7426;SDS011;3755;59.316;18.092;2023-11-21T11:58:53;4.03;;;2.23;;
7426;SDS011;3755;59.316;18.092;2023-11-21T12:01:26;3.10;;;2.23;;
7426;SDS011;3755;59.316;18.092;2023-11-21T12:07:00;2.13;;;1.60;;
7426;SDS011;3755;59.316;18.092;2023-11-21T12:09:29;2.10;;;1.60;;
7426;SDS011;3755;59.316;18.092;2023-11-21T12:11:57;2.77;;;1.77;;
7426;SDS011;3755;59.316;18.092;2023-11-21T12:14:27;2.63;;;1.70;;
7426;SDS011;3755;59.316;18.092;2023-11-21T12:16:58;3.00;;;1.70;;
7426;SDS011;3755;59.316;18.092;2023-11-21T12:19:39;3.27;;;1.47;;
7426;SDS011;3755;59.316;18.092;2023-11-21T12:22:19;3.80;;;1.47;;
7426;SDS011;3755;59.316;18.092;2023-11-21T12:24:48;4.37;;;1.93;;
7426;SDS011;3755;59.316;18.092;2023-11-21T12:27:17;4.57;;;1.70;;
7426;SDS011;3755;59.316;18.092;2023-11-21T12:29:47;2.90;;;1.60;;
7426;SDS011;3755;59.316;18.092;2023-11-21T12:32:16;5.17;;;1.40;;
7426;SDS011;3755;59.316;18.092;2023-11-21T12:34:44;2.30;;;1.30;;
7426;SDS011;3755;59.316;18.092;2023-11-21T12:37:12;2.10;;;1.40;;
7426;SDS011;3755;59.316;18.092;2023-11-21T12:39:39;3.80;;;1.23;;
7426;SDS011;3755;59.316;18.092;2023-11-21T12:42:06;2.73;;;1.57;;
7426;SDS011;3755;59.316;18.092;2023-11-21T12:44:34;2.10;;;1.50;;
7426;SDS011;3755;59.316;18.092;2023-11-21T12:47:02;2.23;;;1.77;;
7426;SDS011;3755;59.316;18.092;2023-11-21T12:49:32;2.50;;;1.20;;
7426;SDS011;3755;59.316;18.092;2023-11-21T12:51:59;3.77;;;1.53;;
7426;SDS011;3755;59.316;18.092;2023-11-21T12:54:28;3.30;;;1.60;;
7426;SDS011;3755;59.316;18.092;2023-11-21T12:56:59;2.17;;;1.60;;
7426;SDS011;3755;59.316;18.092;2023-11-21T12:59:27;3.07;;;2.20;;
7426;SDS011;3755;59.316;18.092;2023-11-21T13:01:55;2.93;;;1.87;;
7426;SDS011;3755;59.316;18.092;2023-11-21T13:04:29;2.97;;;1.70;;
7426;SDS011;3755;59.316;18.092;2023-11-21T13:07:03;1.43;;;1.13;;
7426;SDS011;3755;59.316;18.092;2023-11-21T13:09:39;2.40;;;1.17;;
7426;SDS011;3755;59.316;18.092;2023-11-21T13:12:07;1.83;;;1.10;;
7426;SDS011;3755;59.316;18.092;2023-11-21T13:14:35;3.00;;;1.50;;
7426;SDS011;3755;59.316;18.092;2023-11-21T13:17:02;1.83;;;1.43;;
7426;SDS011;3755;59.316;18.092;2023-11-21T13:19:31;2.73;;;1.30;;
7426;SDS011;3755;59.316;18.092;2023-11-21T13:21:58;1.63;;;1.30;;
7426;SDS011;3755;59.316;18.092;2023-11-21T13:24:29;1.50;;;1.20;;
7426;SDS011;3755;59.316;18.092;2023-11-21T13:26:57;4.60;;;1.47;;
7426;SDS011;3755;59.316;18.092;2023-11-21T13:29:24;2.47;;;1.40;;
7426;SDS011;3755;59.316;18.092;2023-11-21T13:31:51;2.37;;;1.30;;
7426;SDS011;3755;59.316;18.092;2023-11-21T13:34:20;1.73;;;1.20;;
7426;SDS011;3755;59.316;18.092;2023-11-21T13:36:52;1.93;;;1.40;;
7426;SDS011;3755;59.316;18.092;2023-11-21T13:39:23;1.97;;;1.30;;
7426;SDS011;3755;59.316;18.092;2023-11-21T13:41:53;1.87;;;1.07;;
7426;SDS011;3755;59.316;18.092;2023-11-21T13:44:22;1.00;;;0.90;;
7426;SDS011;3755;59.316;18.092;2023-11-21T13:46:59;1.40;;;1.10;;
7426;SDS011;3755;59.316;18.092;2023-11-21T13:49:27;1.40;;;1.07;;
7426;SDS011;3755;59.316;18.092;2023-11-21T13:52:11;2.20;;;1.40;;
7426;SDS011;3755;59.316;18.092;2023-11-21T13:54:42;3.13;;;1.33;;
7426;SDS011;3755;59.316;18.092;2023-11-21T13:57:26;2.30;;;1.27;;
7426;SDS011;3755;59.316;18.092;2023-11-21T13:59:55;3.27;;;1.60;;
7426;SDS011;3755;59.316;18.092;2023-11-21T14:02:24;1.07;;;0.90;;
7426;SDS011;3755;59.316;18.092;2023-11-21T14:04:59;2.90;;;1.40;;
7426;SDS011;3755;59.316;18.092;2023-11-21T14:07:36;2.33;;;1.30;;
7426;SDS011;3755;59.316;18.092;2023-11-21T14:10:13;2.87;;;1.50;;
7426;SDS011;3755;59.316;18.092;2023-11-21T14:12:50;2.30;;;1.30;;
7426;SDS011;3755;59.316;18.092;2023-11-21T14:15:20;2.10;;;1.37;;
7426;SDS011;3755;59.316;18.092;2023-11-21T14:17:47;1.40;;;0.97;;
7426;SDS011;3755;59.316;18.092;2023-11-21T14:20:14;1.80;;;1.60;;
7426;SDS011;3755;59.316;18.092;2023-11-21T14:22:51;1.80;;;1.37;;
7426;SDS011;3755;59.316;18.092;2023-11-21T14:25:33;4.63;;;1.60;;
7426;SDS011;3755;59.316;18.092;2023-11-21T14:28:02;1.90;;;1.60;;
7426;SDS011;3755;59.316;18.092;2023-11-21T14:30:31;4.07;;;1.53;;
7426;SDS011;3755;59.316;18.092;2023-11-21T14:33:07;3.60;;;1.40;;
7426;SDS011;3755;59.316;18.092;2023-11-21T14:35:36;1.50;;;1.30;;
7426;SDS011;3755;59.316;18.092;2023-11-21T14:38:05;2.47;;;1.70;;
7426;SDS011;3755;59.316;18.092;2023-11-21T14:40:32;1.27;;;1.13;;
7426;SDS011;3755;59.316;18.092;2023-11-21T14:43:02;3.77;;;1.80;;
7426;SDS011;3755;59.316;18.092;2023-11-21T14:45:31;5.30;;;1.67;;
7426;SDS011;3755;59.316;18.092;2023-11-21T14:48:02;4.73;;;1.70;;
7426;SDS011;3755;59.316;18.092;2023-11-21T14:50:42;2.37;;;1.50;;
7426;SDS011;3755;59.316;18.092;2023-11-21T15:09:39;6.90;;;1.83;;
7426;SDS011;3755;59.316;18.092;2023-11-21T15:12:54;4.83;;;1.80;;
7426;SDS011;3755;59.316;18.092;2023-11-21T15:15:22;4.67;;;2.10;;
7426;SDS011;3755;59.316;18.092;2023-11-21T15:17:49;11.27;;;2.20;;
7426;SDS011;3755;59.316;18.092;2023-11-21T15:20:17;3.33;;;1.97;;
7426;SDS011;3755;59.316;18.092;2023-11-21T15:22:46;3.13;;;1.80;;
7426;SDS011;3755;59.316;18.092;2023-11-21T15:25:15;2.27;;;1.87;;
7426;SDS011;3755;59.316;18.092;2023-11-21T15:27:43;5.00;;;2.23;;
7426;SDS011;3755;59.316;18.092;2023-11-21T15:30:13;10.23;;;2.17;;
7426;SDS011;3755;59.316;18.092;2023-11-21T15:32:42;9.83;;;4.07;;
7426;SDS011;3755;59.316;18.092;2023-11-21T15:35:10;3.67;;;2.20;;
7426;SDS011;3755;59.316;18.092;2023-11-21T15:37:42;2.93;;;2.20;;
7426;SDS011;3755;59.316;18.092;2023-11-21T15:40:10;3.53;;;2.43;;
7426;SDS011;3755;59.316;18.092;2023-11-21T15:42:43;3.13;;;2.13;;
7426;SDS011;3755;59.316;18.092;2023-11-21T15:45:11;2.73;;;1.80;;